Airfield :
LOGIN :

Register | Disclaimer

   EN    FR    IT 

 










Legend :    VFR   Marginal VFR   IFR   Intensive IFR   Very Intensive IFR
Visi :
Ceiling :
>= 8 km
>= 3000ft
5 to 8 km
1000 to 3000 ft
1500m to 5 km
500 to 1000 ft
800 to 1500m
200 to 500 ft
< 800m
< 200 ft
Symbols :   Thunderstorms  Fog  Heavy snow  Heavy precipitations  Wind > 20 kt
SIGMETs :     Misc.  Thunderstorms  Icing  Turbulence  Mountain Waves  Volcanic Ashes






- Airport Elevation : 74 ft
- IATA code : EIN


EHEH - Eindhoven

CURRENT METAR :
  • 031125Z AUTO VRB04KT 9999 OVC160 22/09 Q1013 BLU NOSIG

EXPIRED METARs :
  • 031055Z AUTO 15003KT 190V350 9999 FEW042 SCT047 OVC150 22/10 Q1013 BLU NOSIG
  • 031025Z AUTO 15003KT 150V280 9999 OVC150 21/09 Q1014 BLU NOSIG
  • 030955Z AUTO 09003KT 130V270 9999 OVC150 21/08 Q1014 BLU NOSIG
  • 030925Z AUTO VRB03KT 9999 OVC150 20/10 Q1014 BLU NOSIG
  • 030855Z AUTO 14003KT 130V240 9999 OVC150 19/10 Q1014 BLU NOSIG

TAF TAF EHEH
Valid from the 03 at 06:00 until the 04 at 12:00 UTC


030519Z 0306/0412 VRB02KT CAVOK
PROB30
TEMPO 0308/0311 VRB10KT FEW020CB BKN025
TEMPO 0311/0320 28010KT 4500 SHRA SCT025CB BKN035
PROB40
TEMPO 0312/0316 30012G25KT 3000 SHRA TSRA FEW015 SCT020CB BKN025
BECMG 0314/0317 33005KT SCT035
TEMPO 0402/0406 VRB03KT 4000 BR FEW018
PROB40
TEMPO 0403/0406 2500 BR MIFG



MET'MAP, your aeronautical weather chart ! - Copyright ORBIFLY December 2007 - Disclaimer

ORBIFLY MET'MAP TEAM :

Programming & Development : Alexandra Zaïnal
Concept & original design : Baudouin d'Aumeries
Assistance for programming : Marc-Olivier Méhu
Technical & hardware support : Manuel Goepfert

Contact : metmap@orbifly.com




SOURCES & CREDITS :

   NOAA